createdAt,value
2022-08-26T00:00:02.978Z,17.12
2022-08-26T00:02:44.240Z,17.05
2022-08-26T00:05:13.037Z,16.75
2022-08-26T00:07:41.018Z,16.77
2022-08-26T00:10:12.178Z,16.80
2022-08-26T00:12:40.596Z,16.75
2022-08-26T00:15:11.038Z,16.77
2022-08-26T00:17:40.237Z,16.86
2022-08-26T00:20:12.046Z,16.88
2022-08-26T00:22:41.471Z,16.66
2022-08-26T00:25:09.246Z,16.72
2022-08-26T00:27:37.574Z,16.64
2022-08-26T00:30:09.984Z,16.69
2022-08-26T00:32:37.776Z,16.67
2022-08-26T00:35:08.642Z,16.62
2022-08-26T00:37:36.730Z,16.52
2022-08-26T00:40:07.077Z,16.51
2022-08-26T00:42:39.238Z,16.36
2022-08-26T00:45:17.655Z,16.50
2022-08-26T00:47:50.043Z,16.58
2022-08-26T00:50:49.281Z,16.73
2022-08-26T00:53:24.031Z,16.62
2022-08-26T00:55:59.008Z,16.51
2022-08-26T00:58:28.100Z,16.56
2022-08-26T01:00:57.659Z,16.66
2022-08-26T01:03:27.959Z,16.63
2022-08-26T01:05:57.222Z,16.51
2022-08-26T01:08:26.163Z,16.48
2022-08-26T01:10:55.882Z,16.50
2022-08-26T01:13:22.801Z,16.59
2022-08-26T01:15:55.806Z,16.50
2022-08-26T01:18:23.026Z,16.56
2022-08-26T01:21:05.579Z,16.50
2022-08-26T01:23:36.421Z,16.57
2022-08-26T01:26:07.682Z,16.41
2022-08-26T01:28:50.667Z,16.45
2022-08-26T01:31:21.055Z,16.49
2022-08-26T01:34:02.064Z,16.41
2022-08-26T01:36:29.670Z,16.31
2022-08-26T01:38:57.640Z,16.12
2022-08-26T01:41:27.183Z,16.27
2022-08-26T01:43:56.596Z,16.35
2022-08-26T01:46:28.267Z,16.29
2022-08-26T01:48:57.479Z,16.44
2022-08-26T01:51:27.871Z,16.47
2022-08-26T01:53:57.867Z,16.37
2022-08-26T01:56:33.244Z,16.35
2022-08-26T01:59:09.697Z,16.10
2022-08-26T02:01:39.277Z,16.13
2022-08-26T02:04:20.859Z,16.36
2022-08-26T02:06:50.039Z,16.36
2022-08-26T02:09:20.093Z,16.47
2022-08-26T02:11:48.743Z,16.46
2022-08-26T02:14:23.042Z,16.48
2022-08-26T02:16:56.715Z,16.51
2022-08-26T02:19:30.498Z,16.34
2022-08-26T02:22:03.020Z,16.44
2022-08-26T02:24:59.042Z,16.34
2022-08-26T02:27:32.903Z,16.28
2022-08-26T02:30:19.920Z,16.19
2022-08-26T02:32:49.623Z,16.24
2022-08-26T02:35:23.213Z,16.32
2022-08-26T02:37:53.190Z,16.24
2022-08-26T02:40:27.952Z,16.31
2022-08-26T02:43:01.964Z,16.27
2022-08-26T02:45:28.998Z,16.31
2022-08-26T02:47:58.055Z,16.16
2022-08-26T02:50:27.135Z,16.21
2022-08-26T02:52:53.734Z,16.18
2022-08-26T02:55:20.842Z,16.03
2022-08-26T02:57:52.765Z,15.97
2022-08-26T03:00:19.656Z,16.11
2022-08-26T03:02:48.522Z,16.06
2022-08-26T03:05:17.883Z,16.26
2022-08-26T03:07:47.240Z,16.10
2022-08-26T03:10:16.315Z,16.03
2022-08-26T03:12:47.443Z,16.04
2022-08-26T03:15:18.386Z,16.02
2022-08-26T03:17:47.165Z,15.99
2022-08-26T03:20:15.583Z,16.08
2022-08-26T03:22:44.841Z,16.03
2022-08-26T03:25:13.939Z,16.07
2022-08-26T03:27:41.669Z,15.92
2022-08-26T03:30:29.861Z,16.01
2022-08-26T03:32:57.632Z,15.99
2022-08-26T03:35:25.808Z,15.86
2022-08-26T03:37:54.032Z,15.76
2022-08-26T03:40:21.513Z,15.90
2022-08-26T03:42:49.426Z,15.86
2022-08-26T03:45:18.115Z,15.83
2022-08-26T03:47:45.999Z,15.64
2022-08-26T03:50:16.123Z,15.74
2022-08-26T03:52:44.203Z,15.82
2022-08-26T03:55:11.835Z,15.85
2022-08-26T03:57:39.290Z,15.68
2022-08-26T04:00:11.725Z,15.70
2022-08-26T04:02:46.051Z,15.79
2022-08-26T04:05:17.865Z,15.71
2022-08-26T04:07:47.779Z,15.71
2022-08-26T04:10:20.397Z,15.74
2022-08-26T04:12:48.350Z,15.62
2022-08-26T04:15:17.872Z,15.69
2022-08-26T04:17:48.289Z,15.75
2022-08-26T04:20:18.223Z,15.49
2022-08-26T04:22:46.144Z,15.56
2022-08-26T04:25:13.511Z,15.70
2022-08-26T04:27:42.131Z,15.67
2022-08-26T04:30:11.275Z,15.67
2022-08-26T04:32:42.821Z,15.53
2022-08-26T04:35:09.921Z,15.48
2022-08-26T04:37:39.745Z,15.58
2022-08-26T04:40:10.951Z,15.60
2022-08-26T04:42:39.648Z,15.42
2022-08-26T04:45:10.230Z,15.43
2022-08-26T04:47:38.352Z,15.22
2022-08-26T04:50:06.942Z,15.48
2022-08-26T04:52:36.551Z,15.38
2022-08-26T04:55:04.840Z,15.13
2022-08-26T04:57:33.655Z,15.35
2022-08-26T05:00:01.293Z,15.40
2022-08-26T05:02:28.871Z,15.46
2022-08-26T05:04:56.270Z,15.49
2022-08-26T05:07:24.312Z,15.56
2022-08-26T05:09:52.689Z,15.63
2022-08-26T05:12:19.694Z,15.65
2022-08-26T05:14:46.360Z,15.87
2022-08-26T05:17:15.089Z,15.93
2022-08-26T05:19:42.905Z,15.97
2022-08-26T05:22:09.959Z,15.90
2022-08-26T05:24:40.243Z,16.09
2022-08-26T05:27:11.439Z,16.32
2022-08-26T05:29:40.538Z,16.37
2022-08-26T05:32:08.235Z,16.41
2022-08-26T05:34:38.583Z,16.50
2022-08-26T05:37:05.987Z,16.43
2022-08-26T05:39:33.577Z,16.48
2022-08-26T05:42:01.221Z,16.41
2022-08-26T05:44:30.269Z,16.44
2022-08-26T05:47:17.218Z,16.54
2022-08-26T05:49:51.323Z,16.75
2022-08-26T05:52:19.095Z,16.81
2022-08-26T05:54:47.664Z,16.86
2022-08-26T05:57:15.611Z,16.83
2022-08-26T05:59:43.864Z,16.78
2022-08-26T06:02:13.410Z,16.93
2022-08-26T06:04:43.358Z,17.00
2022-08-26T06:07:11.660Z,17.11
2022-08-26T06:09:41.542Z,17.23
2022-08-26T06:12:11.125Z,17.29
2022-08-26T06:14:39.826Z,17.43
2022-08-26T06:17:09.658Z,17.69
2022-08-26T06:19:36.867Z,17.55
2022-08-26T06:22:28.893Z,17.76
2022-08-26T06:25:26.094Z,17.77
2022-08-26T06:27:54.951Z,17.77
2022-08-26T06:30:25.216Z,17.75
2022-08-26T06:32:53.843Z,17.76
2022-08-26T06:35:23.794Z,17.80
2022-08-26T06:37:51.870Z,17.81
2022-08-26T06:40:20.919Z,17.99
2022-08-26T06:42:49.259Z,18.01
2022-08-26T06:45:19.596Z,18.06
2022-08-26T06:47:47.079Z,18.26
2022-08-26T06:50:17.857Z,18.38
2022-08-26T06:52:46.340Z,18.35
2022-08-26T06:55:13.343Z,18.49
2022-08-26T06:57:41.056Z,18.66
2022-08-26T07:00:11.640Z,18.67
2022-08-26T07:02:46.883Z,18.81
2022-08-26T07:05:14.319Z,18.95
2022-08-26T07:07:41.696Z,18.91
2022-08-26T07:10:10.218Z,19.02
2022-08-26T07:12:36.993Z,19.17
2022-08-26T07:15:04.168Z,19.30
2022-08-26T07:17:31.245Z,19.04
2022-08-26T07:20:03.257Z,19.39
2022-08-26T07:22:31.664Z,19.72
2022-08-26T07:24:59.277Z,19.79
2022-08-26T07:27:27.523Z,19.86
2022-08-26T07:29:58.135Z,19.98
2022-08-26T07:32:25.499Z,20.11
2022-08-26T07:34:52.586Z,19.99
2022-08-26T07:37:19.597Z,20.13
2022-08-26T07:39:47.297Z,20.23
2022-08-26T07:42:16.471Z,20.20
2022-08-26T07:44:47.079Z,20.32
2022-08-26T07:47:25.300Z,20.28
2022-08-26T07:49:55.367Z,20.30
2022-08-26T07:52:26.894Z,20.36
2022-08-26T07:54:58.064Z,20.28
2022-08-26T07:57:28.107Z,20.02
2022-08-26T07:59:56.315Z,20.41
2022-08-26T08:02:26.200Z,20.45
2022-08-26T08:04:55.027Z,20.75
2022-08-26T08:07:38.777Z,20.62
2022-08-26T08:10:20.853Z,20.80
2022-08-26T08:12:51.044Z,20.77
2022-08-26T08:15:24.973Z,20.94
2022-08-26T08:17:54.044Z,20.81
2022-08-26T08:20:23.665Z,20.97
2022-08-26T08:22:52.947Z,20.97
2022-08-26T08:25:24.900Z,21.03
2022-08-26T08:27:52.936Z,21.18
2022-08-26T08:30:22.780Z,21.30
2022-08-26T08:32:52.950Z,21.35
2022-08-26T08:35:22.993Z,21.28
2022-08-26T08:37:54.734Z,21.40
2022-08-26T08:40:25.799Z,21.47
2022-08-26T08:42:58.365Z,21.34
2022-08-26T08:45:37.220Z,21.66
2022-08-26T08:48:09.582Z,21.80
2022-08-26T08:50:43.555Z,21.93
2022-08-26T08:53:20.417Z,22.06
2022-08-26T08:56:26.449Z,22.10
2022-08-26T08:59:20.325Z,22.26
2022-08-26T09:02:06.501Z,22.23
2022-08-26T09:04:51.548Z,22.29
2022-08-26T09:07:41.059Z,22.13
2022-08-26T09:10:35.176Z,22.41
2022-08-26T09:13:06.558Z,22.44
2022-08-26T09:15:45.858Z,22.60
2022-08-26T09:18:31.451Z,22.63
2022-08-26T09:21:04.809Z,22.66
2022-08-26T09:23:33.055Z,22.60
2022-08-26T09:26:14.945Z,22.73
2022-08-26T09:28:47.622Z,22.92
2022-08-26T09:31:32.469Z,22.92
2022-08-26T09:34:26.502Z,22.98
2022-08-26T09:36:59.640Z,22.85
2022-08-26T09:39:37.531Z,22.98
2022-08-26T09:42:11.385Z,23.00
2022-08-26T09:44:59.582Z,22.90
2022-08-26T09:47:30.289Z,22.98
2022-08-26T09:50:20.119Z,22.91
2022-08-26T09:53:09.501Z,22.93
2022-08-26T09:55:44.800Z,23.08
2022-08-26T09:58:34.123Z,23.15
2022-08-26T10:01:02.944Z,23.34
2022-08-26T10:03:34.451Z,23.54
2022-08-26T10:06:07.439Z,23.59
2022-08-26T10:08:41.999Z,24.04
2022-08-26T10:11:47.633Z,24.61
2022-08-26T10:14:39.788Z,25.22
2022-08-26T10:17:27.370Z,25.63
2022-08-26T10:20:06.420Z,26.18
2022-08-26T10:23:15.350Z,26.46
2022-08-26T10:25:51.808Z,26.61
2022-08-26T10:28:38.147Z,26.78
2022-08-26T10:31:27.473Z,26.61
2022-08-26T10:34:00.023Z,26.30
2022-08-26T10:37:13.773Z,26.69
2022-08-26T10:40:01.857Z,27.55
2022-08-26T10:42:37.593Z,28.00
2022-08-26T10:45:12.034Z,28.51
2022-08-26T10:47:57.350Z,28.93
2022-08-26T10:50:28.296Z,29.07
2022-08-26T10:53:02.504Z,29.36
2022-08-26T10:55:40.003Z,29.19
2022-08-26T10:58:11.646Z,29.51
2022-08-26T11:01:10.399Z,29.61
2022-08-26T11:03:47.436Z,29.72
2022-08-26T11:06:18.307Z,30.19
2022-08-26T11:08:50.250Z,29.93
2022-08-26T11:11:41.613Z,29.49
2022-08-26T11:14:09.589Z,29.71
2022-08-26T11:16:57.448Z,30.24
2022-08-26T11:19:45.615Z,30.53
2022-08-26T11:22:25.470Z,31.00
2022-08-26T11:24:52.409Z,30.72
2022-08-26T11:27:23.225Z,30.45
2022-08-26T11:30:06.726Z,30.57
2022-08-26T11:32:34.272Z,30.70
2022-08-26T11:35:04.948Z,30.95
2022-08-26T11:37:37.544Z,31.44
2022-08-26T11:40:14.931Z,31.89
2022-08-26T11:42:47.004Z,32.20
2022-08-26T11:45:16.290Z,32.18
2022-08-26T11:47:44.702Z,32.76
2022-08-26T11:50:21.483Z,31.77
2022-08-26T11:53:06.276Z,32.13
2022-08-26T11:55:42.726Z,32.07
2022-08-26T11:58:12.164Z,32.21
2022-08-26T12:01:09.788Z,32.19
2022-08-26T12:03:42.039Z,32.93
2022-08-26T12:06:36.365Z,33.15
2022-08-26T12:09:15.155Z,32.78
2022-08-26T12:11:44.938Z,32.59
2022-08-26T12:14:19.432Z,32.27
2022-08-26T12:16:48.903Z,32.60
2022-08-26T12:19:27.501Z,32.66
2022-08-26T12:22:19.497Z,31.73
2022-08-26T12:24:53.286Z,32.86
2022-08-26T12:27:20.769Z,32.29
2022-08-26T12:30:02.680Z,31.64
2022-08-26T12:32:32.736Z,31.00
2022-08-26T12:37:34.655Z,30.14
